sensor_id;sensor_type;location;lat;lon;timestamp;P1;durP1;ratioP1;P2;durP2;ratioP2
19207;SDS011;9737;59.466;18.036;2022-09-16T00:00:10;4.55;;;1.40;;
19207;SDS011;9737;59.466;18.036;2022-09-16T00:02:40;3.45;;;1.30;;
19207;SDS011;9737;59.466;18.036;2022-09-16T00:05:11;3.65;;;1.30;;
19207;SDS011;9737;59.466;18.036;2022-09-16T00:07:40;3.72;;;1.30;;
19207;SDS011;9737;59.466;18.036;2022-09-16T00:10:10;1.73;;;1.20;;
19207;SDS011;9737;59.466;18.036;2022-09-16T00:12:40;2.72;;;1.50;;
19207;SDS011;9737;59.466;18.036;2022-09-16T00:15:10;2.17;;;1.33;;
19207;SDS011;9737;59.466;18.036;2022-09-16T00:17:39;2.50;;;1.30;;
19207;SDS011;9737;59.466;18.036;2022-09-16T00:20:09;2.33;;;1.40;;
19207;SDS011;9737;59.466;18.036;2022-09-16T00:22:42;4.35;;;1.40;;
19207;SDS011;9737;59.466;18.036;2022-09-16T00:25:11;1.27;;;1.17;;
19207;SDS011;9737;59.466;18.036;2022-09-16T00:27:46;1.42;;;1.33;;
19207;SDS011;9737;59.466;18.036;2022-09-16T00:30:17;1.50;;;1.40;;
19207;SDS011;9737;59.466;18.036;2022-09-16T00:32:47;3.55;;;1.50;;
19207;SDS011;9737;59.466;18.036;2022-09-16T00:35:18;1.58;;;1.30;;
19207;SDS011;9737;59.466;18.036;2022-09-16T00:37:49;1.48;;;1.30;;
19207;SDS011;9737;59.466;18.036;2022-09-16T00:40:19;2.67;;;2.13;;
19207;SDS011;9737;59.466;18.036;2022-09-16T00:42:53;1.50;;;1.40;;
19207;SDS011;9737;59.466;18.036;2022-09-16T00:45:24;1.30;;;1.20;;
19207;SDS011;9737;59.466;18.036;2022-09-16T00:47:58;2.72;;;1.10;;
19207;SDS011;9737;59.466;18.036;2022-09-16T00:50:30;1.38;;;1.27;;
19207;SDS011;9737;59.466;18.036;2022-09-16T00:53:05;1.63;;;1.40;;
19207;SDS011;9737;59.466;18.036;2022-09-16T00:55:37;3.17;;;1.38;;
19207;SDS011;9737;59.466;18.036;2022-09-16T00:58:09;3.95;;;1.50;;
19207;SDS011;9737;59.466;18.036;2022-09-16T01:00:43;2.35;;;1.50;;
19207;SDS011;9737;59.466;18.036;2022-09-16T01:03:18;1.63;;;1.33;;
19207;SDS011;9737;59.466;18.036;2022-09-16T01:05:47;2.70;;;1.75;;
19207;SDS011;9737;59.466;18.036;2022-09-16T01:08:18;1.50;;;1.40;;
19207;SDS011;9737;59.466;18.036;2022-09-16T01:10:49;3.33;;;1.48;;
19207;SDS011;9737;59.466;18.036;2022-09-16T01:13:21;1.80;;;1.40;;
19207;SDS011;9737;59.466;18.036;2022-09-16T01:15:52;2.47;;;1.40;;
19207;SDS011;9737;59.466;18.036;2022-09-16T01:18:29;2.67;;;1.30;;
19207;SDS011;9737;59.466;18.036;2022-09-16T01:21:15;1.20;;;1.10;;
19207;SDS011;9737;59.466;18.036;2022-09-16T01:23:58;2.85;;;1.27;;
19207;SDS011;9737;59.466;18.036;2022-09-16T01:26:50;1.30;;;1.20;;
19207;SDS011;9737;59.466;18.036;2022-09-16T01:29:51;5.50;;;1.40;;
19207;SDS011;9737;59.466;18.036;2022-09-16T01:32:46;2.13;;;1.40;;
19207;SDS011;9737;59.466;18.036;2022-09-16T01:35:26;2.80;;;1.33;;
19207;SDS011;9737;59.466;18.036;2022-09-16T01:38:08;3.92;;;1.30;;
19207;SDS011;9737;59.466;18.036;2022-09-16T01:40:47;1.30;;;1.20;;
19207;SDS011;9737;59.466;18.036;2022-09-16T01:43:25;2.00;;;1.50;;
19207;SDS011;9737;59.466;18.036;2022-09-16T01:46:09;1.58;;;1.48;;
19207;SDS011;9737;59.466;18.036;2022-09-16T01:48:53;1.80;;;1.30;;
19207;SDS011;9737;59.466;18.036;2022-09-16T01:51:29;3.80;;;1.35;;
19207;SDS011;9737;59.466;18.036;2022-09-16T01:54:06;1.42;;;1.30;;
19207;SDS011;9737;59.466;18.036;2022-09-16T01:56:41;1.48;;;1.38;;
19207;SDS011;9737;59.466;18.036;2022-09-16T01:59:16;1.52;;;1.42;;
19207;SDS011;9737;59.466;18.036;2022-09-16T02:01:50;5.75;;;1.65;;
19207;SDS011;9737;59.466;18.036;2022-09-16T02:04:26;3.00;;;1.70;;
19207;SDS011;9737;59.466;18.036;2022-09-16T02:06:59;1.92;;;1.50;;
19207;SDS011;9737;59.466;18.036;2022-09-16T02:09:31;1.80;;;1.67;;
19207;SDS011;9737;59.466;18.036;2022-09-16T02:12:07;4.63;;;1.90;;
19207;SDS011;9737;59.466;18.036;2022-09-16T02:14:42;1.90;;;1.67;;
19207;SDS011;9737;59.466;18.036;2022-09-16T02:17:15;2.67;;;1.80;;
19207;SDS011;9737;59.466;18.036;2022-09-16T02:19:51;1.90;;;1.70;;
19207;SDS011;9737;59.466;18.036;2022-09-16T02:22:25;2.08;;;1.88;;
19207;SDS011;9737;59.466;18.036;2022-09-16T02:24:58;2.00;;;1.90;;
19207;SDS011;9737;59.466;18.036;2022-09-16T02:27:30;2.15;;;1.83;;
19207;SDS011;9737;59.466;18.036;2022-09-16T02:30:02;2.63;;;1.60;;
19207;SDS011;9737;59.466;18.036;2022-09-16T02:32:34;2.03;;;1.85;;
19207;SDS011;9737;59.466;18.036;2022-09-16T02:35:11;3.45;;;1.92;;
19207;SDS011;9737;59.466;18.036;2022-09-16T02:37:44;2.25;;;1.98;;
19207;SDS011;9737;59.466;18.036;2022-09-16T02:40:18;2.88;;;2.05;;
19207;SDS011;9737;59.466;18.036;2022-09-16T02:42:56;3.03;;;2.38;;
19207;SDS011;9737;59.466;18.036;2022-09-16T02:45:29;5.57;;;2.78;;
19207;SDS011;9737;59.466;18.036;2022-09-16T02:48:07;4.38;;;2.58;;
19207;SDS011;9737;59.466;18.036;2022-09-16T02:50:46;6.15;;;2.75;;
19207;SDS011;9737;59.466;18.036;2022-09-16T02:53:21;3.85;;;2.80;;
19207;SDS011;9737;59.466;18.036;2022-09-16T02:55:58;4.80;;;3.13;;
19207;SDS011;9737;59.466;18.036;2022-09-16T02:58:32;7.63;;;4.38;;
19207;SDS011;9737;59.466;18.036;2022-09-16T03:01:02;9.52;;;4.00;;
19207;SDS011;9737;59.466;18.036;2022-09-16T03:03:34;5.80;;;3.88;;
19207;SDS011;9737;59.466;18.036;2022-09-16T03:06:12;4.97;;;3.63;;
19207;SDS011;9737;59.466;18.036;2022-09-16T03:08:44;7.30;;;4.28;;
19207;SDS011;9737;59.466;18.036;2022-09-16T03:11:23;8.27;;;4.80;;
19207;SDS011;9737;59.466;18.036;2022-09-16T03:14:12;8.73;;;4.68;;
19207;SDS011;9737;59.466;18.036;2022-09-16T03:16:52;11.80;;;4.70;;
19207;SDS011;9737;59.466;18.036;2022-09-16T03:19:33;10.02;;;4.82;;
19207;SDS011;9737;59.466;18.036;2022-09-16T03:22:12;10.98;;;5.07;;
19207;SDS011;9737;59.466;18.036;2022-09-16T03:24:48;9.88;;;4.93;;
19207;SDS011;9737;59.466;18.036;2022-09-16T03:27:27;12.57;;;5.25;;
19207;SDS011;9737;59.466;18.036;2022-09-16T03:30:01;9.90;;;4.90;;
19207;SDS011;9737;59.466;18.036;2022-09-16T03:32:31;11.13;;;5.10;;
19207;SDS011;9737;59.466;18.036;2022-09-16T03:35:05;7.78;;;4.50;;
19207;SDS011;9737;59.466;18.036;2022-09-16T03:37:41;8.10;;;4.18;;
19207;SDS011;9737;59.466;18.036;2022-09-16T03:40:14;8.90;;;4.70;;
19207;SDS011;9737;59.466;18.036;2022-09-16T03:42:45;8.68;;;4.25;;
19207;SDS011;9737;59.466;18.036;2022-09-16T03:45:15;7.05;;;4.07;;
19207;SDS011;9737;59.466;18.036;2022-09-16T03:47:47;5.47;;;3.72;;
19207;SDS011;9737;59.466;18.036;2022-09-16T03:50:20;7.63;;;4.15;;
19207;SDS011;9737;59.466;18.036;2022-09-16T03:52:52;5.75;;;4.18;;
19207;SDS011;9737;59.466;18.036;2022-09-16T03:55:21;5.93;;;3.90;;
19207;SDS011;9737;59.466;18.036;2022-09-16T03:57:51;5.75;;;3.78;;
19207;SDS011;9737;59.466;18.036;2022-09-16T04:00:21;7.88;;;3.92;;
19207;SDS011;9737;59.466;18.036;2022-09-16T04:02:50;5.53;;;3.80;;
19207;SDS011;9737;59.466;18.036;2022-09-16T04:05:20;4.57;;;3.50;;
19207;SDS011;9737;59.466;18.036;2022-09-16T04:07:49;5.28;;;3.75;;
19207;SDS011;9737;59.466;18.036;2022-09-16T04:10:20;5.93;;;3.80;;
19207;SDS011;9737;59.466;18.036;2022-09-16T04:12:55;6.80;;;3.75;;
19207;SDS011;9737;59.466;18.036;2022-09-16T04:15:25;5.20;;;3.42;;
19207;SDS011;9737;59.466;18.036;2022-09-16T04:17:54;5.82;;;4.20;;
19207;SDS011;9737;59.466;18.036;2022-09-16T04:20:25;6.65;;;3.65;;
19207;SDS011;9737;59.466;18.036;2022-09-16T04:22:54;6.63;;;4.05;;
19207;SDS011;9737;59.466;18.036;2022-09-16T04:25:26;5.20;;;3.80;;
19207;SDS011;9737;59.466;18.036;2022-09-16T04:27:55;5.00;;;3.63;;
19207;SDS011;9737;59.466;18.036;2022-09-16T04:30:24;6.63;;;4.22;;
19207;SDS011;9737;59.466;18.036;2022-09-16T04:32:52;8.70;;;4.68;;
19207;SDS011;9737;59.466;18.036;2022-09-16T04:35:20;6.97;;;4.10;;
19207;SDS011;9737;59.466;18.036;2022-09-16T04:37:53;5.43;;;4.10;;
19207;SDS011;9737;59.466;18.036;2022-09-16T04:40:26;8.00;;;4.70;;
19207;SDS011;9737;59.466;18.036;2022-09-16T04:42:57;5.97;;;4.65;;
19207;SDS011;9737;59.466;18.036;2022-09-16T04:45:29;5.45;;;4.35;;
19207;SDS011;9737;59.466;18.036;2022-09-16T04:47:57;7.10;;;4.78;;
19207;SDS011;9737;59.466;18.036;2022-09-16T04:50:26;7.20;;;4.75;;
19207;SDS011;9737;59.466;18.036;2022-09-16T04:52:57;6.82;;;4.53;;
19207;SDS011;9737;59.466;18.036;2022-09-16T04:55:28;9.20;;;4.63;;
19207;SDS011;9737;59.466;18.036;2022-09-16T04:57:59;8.43;;;4.78;;
19207;SDS011;9737;59.466;18.036;2022-09-16T05:00:29;8.57;;;4.60;;
19207;SDS011;9737;59.466;18.036;2022-09-16T05:02:58;8.25;;;4.68;;
19207;SDS011;9737;59.466;18.036;2022-09-16T05:05:29;7.82;;;4.80;;
19207;SDS011;9737;59.466;18.036;2022-09-16T05:07:59;7.53;;;4.40;;
19207;SDS011;9737;59.466;18.036;2022-09-16T05:10:29;7.38;;;4.82;;
19207;SDS011;9737;59.466;18.036;2022-09-16T05:12:59;8.48;;;4.63;;
19207;SDS011;9737;59.466;18.036;2022-09-16T05:15:28;5.75;;;3.97;;
19207;SDS011;9737;59.466;18.036;2022-09-16T05:17:58;6.28;;;4.15;;
19207;SDS011;9737;59.466;18.036;2022-09-16T05:20:28;6.18;;;3.80;;
19207;SDS011;9737;59.466;18.036;2022-09-16T05:22:57;8.75;;;4.38;;
19207;SDS011;9737;59.466;18.036;2022-09-16T05:25:25;5.82;;;4.30;;
19207;SDS011;9737;59.466;18.036;2022-09-16T05:27:57;7.97;;;4.18;;
19207;SDS011;9737;59.466;18.036;2022-09-16T05:30:26;6.55;;;4.03;;
19207;SDS011;9737;59.466;18.036;2022-09-16T05:32:56;7.57;;;4.30;;
19207;SDS011;9737;59.466;18.036;2022-09-16T05:35:24;8.75;;;4.05;;
19207;SDS011;9737;59.466;18.036;2022-09-16T05:37:52;5.63;;;4.00;;
19207;SDS011;9737;59.466;18.036;2022-09-16T05:40:20;6.28;;;4.53;;
19207;SDS011;9737;59.466;18.036;2022-09-16T05:42:50;6.72;;;4.00;;
19207;SDS011;9737;59.466;18.036;2022-09-16T05:45:22;5.18;;;3.80;;
19207;SDS011;9737;59.466;18.036;2022-09-16T05:47:58;7.15;;;3.72;;
19207;SDS011;9737;59.466;18.036;2022-09-16T05:50:27;8.52;;;3.42;;
19207;SDS011;9737;59.466;18.036;2022-09-16T05:52:57;5.47;;;3.50;;
19207;SDS011;9737;59.466;18.036;2022-09-16T05:55:26;5.22;;;3.40;;
19207;SDS011;9737;59.466;18.036;2022-09-16T05:57:57;6.22;;;3.53;;
19207;SDS011;9737;59.466;18.036;2022-09-16T06:00:26;4.18;;;2.95;;
19207;SDS011;9737;59.466;18.036;2022-09-16T06:02:55;4.65;;;3.10;;
19207;SDS011;9737;59.466;18.036;2022-09-16T06:05:23;5.32;;;3.22;;
19207;SDS011;9737;59.466;18.036;2022-09-16T06:07:54;4.97;;;2.88;;
19207;SDS011;9737;59.466;18.036;2022-09-16T06:10:23;3.65;;;2.80;;
19207;SDS011;9737;59.466;18.036;2022-09-16T06:12:51;5.35;;;3.17;;
19207;SDS011;9737;59.466;18.036;2022-09-16T06:15:19;4.00;;;2.95;;
19207;SDS011;9737;59.466;18.036;2022-09-16T06:17:51;3.70;;;2.70;;
19207;SDS011;9737;59.466;18.036;2022-09-16T06:20:21;3.95;;;2.70;;
19207;SDS011;9737;59.466;18.036;2022-09-16T06:22:52;4.20;;;2.50;;
19207;SDS011;9737;59.466;18.036;2022-09-16T06:25:22;3.28;;;2.40;;
19207;SDS011;9737;59.466;18.036;2022-09-16T06:27:50;3.72;;;2.60;;
19207;SDS011;9737;59.466;18.036;2022-09-16T06:30:19;2.72;;;2.20;;
19207;SDS011;9737;59.466;18.036;2022-09-16T06:32:48;4.70;;;2.38;;
19207;SDS011;9737;59.466;18.036;2022-09-16T06:35:18;4.53;;;2.35;;
19207;SDS011;9737;59.466;18.036;2022-09-16T06:37:48;6.03;;;2.50;;
19207;SDS011;9737;59.466;18.036;2022-09-16T06:40:16;3.10;;;2.30;;
19207;SDS011;9737;59.466;18.036;2022-09-16T06:42:45;3.88;;;2.15;;
19207;SDS011;9737;59.466;18.036;2022-09-16T06:45:15;3.53;;;1.88;;
19207;SDS011;9737;59.466;18.036;2022-09-16T06:47:44;2.05;;;1.85;;
19207;SDS011;9737;59.466;18.036;2022-09-16T06:50:15;2.13;;;1.92;;
19207;SDS011;9737;59.466;18.036;2022-09-16T06:52:45;2.70;;;1.95;;
19207;SDS011;9737;59.466;18.036;2022-09-16T06:55:18;2.15;;;1.60;;
19207;SDS011;9737;59.466;18.036;2022-09-16T06:57:47;3.33;;;1.83;;
19207;SDS011;9737;59.466;18.036;2022-09-16T07:00:19;3.65;;;2.00;;
19207;SDS011;9737;59.466;18.036;2022-09-16T07:02:51;3.55;;;1.75;;
19207;SDS011;9737;59.466;18.036;2022-09-16T07:05:20;4.10;;;1.85;;
19207;SDS011;9737;59.466;18.036;2022-09-16T07:07:51;1.80;;;1.63;;
19207;SDS011;9737;59.466;18.036;2022-09-16T07:10:22;4.03;;;1.60;;
19207;SDS011;9737;59.466;18.036;2022-09-16T07:12:52;2.08;;;1.70;;
19207;SDS011;9737;59.466;18.036;2022-09-16T07:15:21;1.70;;;1.50;;
19207;SDS011;9737;59.466;18.036;2022-09-16T07:17:52;1.73;;;1.50;;
19207;SDS011;9737;59.466;18.036;2022-09-16T07:20:22;4.15;;;1.60;;
19207;SDS011;9737;59.466;18.036;2022-09-16T07:22:54;4.28;;;1.38;;
19207;SDS011;9737;59.466;18.036;2022-09-16T07:25:24;1.65;;;1.55;;
19207;SDS011;9737;59.466;18.036;2022-09-16T07:27:53;6.25;;;1.50;;
19207;SDS011;9737;59.466;18.036;2022-09-16T07:30:20;1.67;;;1.50;;
19207;SDS011;9737;59.466;18.036;2022-09-16T07:32:50;1.40;;;1.23;;
19207;SDS011;9737;59.466;18.036;2022-09-16T07:35:19;6.03;;;1.42;;
19207;SDS011;9737;59.466;18.036;2022-09-16T07:37:48;1.95;;;1.40;;
19207;SDS011;9737;59.466;18.036;2022-09-16T07:40:18;2.07;;;1.67;;
19207;SDS011;9737;59.466;18.036;2022-09-16T07:42:48;1.42;;;1.33;;
19207;SDS011;9737;59.466;18.036;2022-09-16T07:45:16;2.17;;;1.50;;
19207;SDS011;9737;59.466;18.036;2022-09-16T07:47:47;3.95;;;1.55;;
19207;SDS011;9737;59.466;18.036;2022-09-16T07:50:15;2.05;;;1.35;;
19207;SDS011;9737;59.466;18.036;2022-09-16T07:52:44;1.65;;;1.50;;
19207;SDS011;9737;59.466;18.036;2022-09-16T07:55:11;1.40;;;1.20;;
19207;SDS011;9737;59.466;18.036;2022-09-16T07:57:43;2.97;;;1.67;;
19207;SDS011;9737;59.466;18.036;2022-09-16T08:00:12;1.52;;;1.42;;
19207;SDS011;9737;59.466;18.036;2022-09-16T08:02:43;1.75;;;1.52;;
19207;SDS011;9737;59.466;18.036;2022-09-16T08:05:12;2.42;;;1.80;;
19207;SDS011;9737;59.466;18.036;2022-09-16T08:07:41;5.78;;;1.58;;
19207;SDS011;9737;59.466;18.036;2022-09-16T08:10:09;3.58;;;1.38;;
19207;SDS011;9737;59.466;18.036;2022-09-16T08:12:37;2.83;;;1.52;;
19207;SDS011;9737;59.466;18.036;2022-09-16T08:15:07;2.45;;;1.42;;
19207;SDS011;9737;59.466;18.036;2022-09-16T08:17:36;3.05;;;1.38;;
19207;SDS011;9737;59.466;18.036;2022-09-16T08:20:04;5.40;;;1.83;;
19207;SDS011;9737;59.466;18.036;2022-09-16T08:22:33;2.08;;;1.40;;
19207;SDS011;9737;59.466;18.036;2022-09-16T08:25:01;2.45;;;1.50;;
19207;SDS011;9737;59.466;18.036;2022-09-16T08:27:33;1.50;;;1.40;;
19207;SDS011;9737;59.466;18.036;2022-09-16T08:30:02;2.05;;;1.33;;
19207;SDS011;9737;59.466;18.036;2022-09-16T08:32:32;1.63;;;1.50;;
19207;SDS011;9737;59.466;18.036;2022-09-16T08:35:01;1.58;;;1.20;;
19207;SDS011;9737;59.466;18.036;2022-09-16T08:37:29;1.40;;;1.30;;
19207;SDS011;9737;59.466;18.036;2022-09-16T08:39:57;5.85;;;1.40;;
19207;SDS011;9737;59.466;18.036;2022-09-16T08:42:29;2.10;;;1.50;;
19207;SDS011;9737;59.466;18.036;2022-09-16T08:45:09;1.60;;;1.50;;
19207;SDS011;9737;59.466;18.036;2022-09-16T08:47:52;2.15;;;1.33;;
19207;SDS011;9737;59.466;18.036;2022-09-16T08:50:36;3.20;;;1.75;;
19207;SDS011;9737;59.466;18.036;2022-09-16T08:53:09;1.45;;;1.20;;
19207;SDS011;9737;59.466;18.036;2022-09-16T08:55:44;2.90;;;1.70;;
19207;SDS011;9737;59.466;18.036;2022-09-16T08:58:17;1.40;;;1.30;;
19207;SDS011;9737;59.466;18.036;2022-09-16T09:00:48;5.15;;;1.58;;
19207;SDS011;9737;59.466;18.036;2022-09-16T09:03:27;5.80;;;1.60;;
19207;SDS011;9737;59.466;18.036;2022-09-16T09:06:04;3.22;;;1.27;;
19207;SDS011;9737;59.466;18.036;2022-09-16T09:08:43;1.30;;;1.20;;
19207;SDS011;9737;59.466;18.036;2022-09-16T09:11:21;2.50;;;1.30;;
19207;SDS011;9737;59.466;18.036;2022-09-16T09:14:03;4.85;;;1.40;;
19207;SDS011;9737;59.466;18.036;2022-09-16T09:16:45;1.33;;;1.23;;
19207;SDS011;9737;59.466;18.036;2022-09-16T09:19:25;1.55;;;1.20;;
19207;SDS011;9737;59.466;18.036;2022-09-16T09:22:07;1.65;;;1.20;;
19207;SDS011;9737;59.466;18.036;2022-09-16T09:25:00;3.92;;;1.30;;
19207;SDS011;9737;59.466;18.036;2022-09-16T09:27:50;2.35;;;1.42;;
19207;SDS011;9737;59.466;18.036;2022-09-16T09:30:25;1.70;;;1.42;;
19207;SDS011;9737;59.466;18.036;2022-09-16T09:32:58;1.35;;;1.25;;
19207;SDS011;9737;59.466;18.036;2022-09-16T09:36:10;1.33;;;1.23;;
19207;SDS011;9737;59.466;18.036;2022-09-16T09:41:57;1.83;;;1.50;;
19207;SDS011;9737;59.466;18.036;2022-09-16T09:44:37;1.50;;;1.40;;
19207;SDS011;9737;59.466;18.036;2022-09-16T09:47:16;1.75;;;1.40;;
19207;SDS011;9737;59.466;18.036;2022-09-16T09:49:49;1.40;;;1.27;;
19207;SDS011;9737;59.466;18.036;2022-09-16T09:52:24;1.75;;;1.40;;
19207;SDS011;9737;59.466;18.036;2022-09-16T09:54:55;2.08;;;1.48;;
19207;SDS011;9737;59.466;18.036;2022-09-16T09:57:35;2.00;;;1.67;;
19207;SDS011;9737;59.466;18.036;2022-09-16T10:00:13;1.77;;;1.48;;
19207;SDS011;9737;59.466;18.036;2022-09-16T10:03:00;1.88;;;1.30;;
19207;SDS011;9737;59.466;18.036;2022-09-16T10:05:31;4.65;;;1.33;;
19207;SDS011;9737;59.466;18.036;2022-09-16T10:08:02;3.22;;;1.30;;
19207;SDS011;9737;59.466;18.036;2022-09-16T10:10:39;1.10;;;1.00;;
19207;SDS011;9737;59.466;18.036;2022-09-16T10:13:16;1.90;;;1.10;;
19207;SDS011;9737;59.466;18.036;2022-09-16T10:15:45;3.38;;;1.27;;
19207;SDS011;9737;59.466;18.036;2022-09-16T10:18:22;1.15;;;1.05;;
19207;SDS011;9737;59.466;18.036;2022-09-16T10:20:56;1.13;;;1.02;;
19207;SDS011;9737;59.466;18.036;2022-09-16T10:23:30;1.73;;;1.20;;
19207;SDS011;9737;59.466;18.036;2022-09-16T10:26:05;2.47;;;0.85;;
19207;SDS011;9737;59.466;18.036;2022-09-16T10:28:54;1.30;;;1.17;;
19207;SDS011;9737;59.466;18.036;2022-09-16T10:31:25;4.45;;;0.93;;
19207;SDS011;9737;59.466;18.036;2022-09-16T10:34:00;0.90;;;0.90;;
19207;SDS011;9737;59.466;18.036;2022-09-16T10:36:31;1.60;;;0.90;;
19207;SDS011;9737;59.466;18.036;2022-09-16T10:39:04;0.80;;;0.80;;
19207;SDS011;9737;59.466;18.036;2022-09-16T10:41:33;2.35;;;1.00;;
19207;SDS011;9737;59.466;18.036;2022-09-16T10:44:11;0.88;;;0.80;;
19207;SDS011;9737;59.466;18.036;2022-09-16T10:46:48;3.28;;;0.80;;
19207;SDS011;9737;59.466;18.036;2022-09-16T10:49:19;0.90;;;0.90;;
19207;SDS011;9737;59.466;18.036;2022-09-16T10:51:52;0.82;;;0.82;;
19207;SDS011;9737;59.466;18.036;2022-09-16T10:54:25;0.98;;;0.80;;
19207;SDS011;9737;59.466;18.036;2022-09-16T10:56:54;3.28;;;1.00;;
19207;SDS011;9737;59.466;18.036;2022-09-16T10:59:22;4.78;;;1.35;;
19207;SDS011;9737;59.466;18.036;2022-09-16T11:01:55;2.45;;;1.00;;
19207;SDS011;9737;59.466;18.036;2022-09-16T11:04:57;0.80;;;0.80;;
19207;SDS011;9737;59.466;18.036;2022-09-16T11:07:34;0.80;;;0.80;;
19207;SDS011;9737;59.466;18.036;2022-09-16T11:10:12;0.75;;;0.70;;
19207;SDS011;9737;59.466;18.036;2022-09-16T11:15:58;6.18;;;0.70;;
19207;SDS011;9737;59.466;18.036;2022-09-16T11:18:41;3.45;;;0.82;;
19207;SDS011;9737;59.466;18.036;2022-09-16T11:21:23;1.02;;;0.73;;
19207;SDS011;9737;59.466;18.036;2022-09-16T11:24:07;2.55;;;0.80;;
19207;SDS011;9737;59.466;18.036;2022-09-16T11:26:50;1.10;;;0.80;;
19207;SDS011;9737;59.466;18.036;2022-09-16T11:29:48;1.30;;;0.80;;
19207;SDS011;9737;59.466;18.036;2022-09-16T11:32:29;2.95;;;1.10;;
19207;SDS011;9737;59.466;18.036;2022-09-16T11:35:23;1.55;;;0.90;;
19207;SDS011;9737;59.466;18.036;2022-09-16T11:38:02;3.55;;;1.00;;
19207;SDS011;9737;59.466;18.036;2022-09-16T11:40:42;4.65;;;0.70;;
19207;SDS011;9737;59.466;18.036;2022-09-16T11:43:22;4.53;;;1.20;;
19207;SDS011;9737;59.466;18.036;2022-09-16T11:46:04;2.75;;;0.80;;
19207;SDS011;9737;59.466;18.036;2022-09-16T11:48:47;1.30;;;0.80;;
19207;SDS011;9737;59.466;18.036;2022-09-16T11:51:29;1.98;;;1.00;;
19207;SDS011;9737;59.466;18.036;2022-09-16T11:54:08;2.53;;;0.80;;
19207;SDS011;9737;59.466;18.036;2022-09-16T11:56:51;2.72;;;1.00;;
19207;SDS011;9737;59.466;18.036;2022-09-16T11:59:29;3.33;;;0.80;;
19207;SDS011;9737;59.466;18.036;2022-09-16T12:02:11;2.05;;;0.90;;
19207;SDS011;9737;59.466;18.036;2022-09-16T12:04:45;5.63;;;1.17;;
19207;SDS011;9737;59.466;18.036;2022-09-16T12:07:18;4.78;;;1.40;;
19207;SDS011;9737;59.466;18.036;2022-09-16T12:09:54;2.75;;;1.20;;
19207;SDS011;9737;59.466;18.036;2022-09-16T12:12:28;3.80;;;1.15;;
19207;SDS011;9737;59.466;18.036;2022-09-16T12:15:16;3.35;;;1.10;;
19207;SDS011;9737;59.466;18.036;2022-09-16T12:17:50;4.63;;;1.05;;
19207;SDS011;9737;59.466;18.036;2022-09-16T12:20:23;1.15;;;1.00;;
19207;SDS011;9737;59.466;18.036;2022-09-16T12:22:59;2.55;;;0.95;;
19207;SDS011;9737;59.466;18.036;2022-09-16T12:25:33;2.00;;;1.10;;
19207;SDS011;9737;59.466;18.036;2022-09-16T12:28:12;3.42;;;1.30;;
19207;SDS011;9737;59.466;18.036;2022-09-16T12:30:51;2.67;;;1.20;;
19207;SDS011;9737;59.466;18.036;2022-09-16T12:33:28;2.95;;;1.48;;
19207;SDS011;9737;59.466;18.036;2022-09-16T12:36:03;3.28;;;1.00;;
19207;SDS011;9737;59.466;18.036;2022-09-16T12:38:33;1.40;;;1.30;;
19207;SDS011;9737;59.466;18.036;2022-09-16T12:41:06;0.98;;;0.90;;
19207;SDS011;9737;59.466;18.036;2022-09-16T12:43:57;1.27;;;0.90;;
19207;SDS011;9737;59.466;18.036;2022-09-16T12:47:08;1.38;;;0.90;;
19207;SDS011;9737;59.466;18.036;2022-09-16T12:50:03;1.27;;;0.90;;
19207;SDS011;9737;59.466;18.036;2022-09-16T12:52:52;3.97;;;0.80;;
19207;SDS011;9737;59.466;18.036;2022-09-16T12:58:47;2.83;;;0.80;;
19207;SDS011;9737;59.466;18.036;2022-09-16T13:01:26;0.68;;;0.68;;
19207;SDS011;9737;59.466;18.036;2022-09-16T13:04:02;1.65;;;0.70;;
19207;SDS011;9737;59.466;18.036;2022-09-16T13:06:43;1.58;;;0.65;;
19207;SDS011;9737;59.466;18.036;2022-09-16T13:09:24;1.60;;;0.82;;
19207;SDS011;9737;59.466;18.036;2022-09-16T13:12:03;0.70;;;0.70;;
19207;SDS011;9737;59.466;18.036;2022-09-16T13:14:59;1.00;;;0.70;;
19207;SDS011;9737;59.466;18.036;2022-09-16T13:17:35;0.77;;;0.73;;
19207;SDS011;9737;59.466;18.036;2022-09-16T13:20:10;0.93;;;0.60;;
19207;SDS011;9737;59.466;18.036;2022-09-16T13:22:43;0.85;;;0.70;;
19207;SDS011;9737;59.466;18.036;2022-09-16T13:25:18;3.50;;;0.90;;
19207;SDS011;9737;59.466;18.036;2022-09-16T13:27:56;3.20;;;0.75;;
19207;SDS011;9737;59.466;18.036;2022-09-16T13:30:31;0.98;;;0.80;;
19207;SDS011;9737;59.466;18.036;2022-09-16T13:33:21;3.53;;;0.82;;
19207;SDS011;9737;59.466;18.036;2022-09-16T13:36:14;2.60;;;0.90;;
19207;SDS011;9737;59.466;18.036;2022-09-16T13:38:57;2.30;;;0.90;;
19207;SDS011;9737;59.466;18.036;2022-09-16T13:41:28;1.48;;;0.90;;
19207;SDS011;9737;59.466;18.036;2022-09-16T13:43:59;1.48;;;0.80;;
19207;SDS011;9737;59.466;18.036;2022-09-16T13:46:31;2.00;;;0.60;;
19207;SDS011;9737;59.466;18.036;2022-09-16T13:49:09;3.13;;;0.80;;
19207;SDS011;9737;59.466;18.036;2022-09-16T13:51:45;1.38;;;0.80;;
19207;SDS011;9737;59.466;18.036;2022-09-16T13:57:21;1.20;;;1.10;;
19207;SDS011;9737;59.466;18.036;2022-09-16T14:00:11;1.08;;;0.98;;
19207;SDS011;9737;59.466;18.036;2022-09-16T14:02:49;1.40;;;1.10;;
19207;SDS011;9737;59.466;18.036;2022-09-16T14:05:38;1.63;;;1.10;;
19207;SDS011;9737;59.466;18.036;2022-09-16T14:08:17;1.80;;;1.10;;
19207;SDS011;9737;59.466;18.036;2022-09-16T14:10:55;2.45;;;1.15;;
19207;SDS011;9737;59.466;18.036;2022-09-16T14:13:32;1.13;;;0.90;;
19207;SDS011;9737;59.466;18.036;2022-09-16T14:16:08;0.80;;;0.80;;
19207;SDS011;9737;59.466;18.036;2022-09-16T14:18:46;0.95;;;0.90;;
19207;SDS011;9737;59.466;18.036;2022-09-16T14:21:21;1.10;;;0.95;;
19207;SDS011;9737;59.466;18.036;2022-09-16T14:23:52;0.70;;;0.70;;
19207;SDS011;9737;59.466;18.036;2022-09-16T14:26:24;0.80;;;0.80;;
19207;SDS011;9737;59.466;18.036;2022-09-16T14:29:00;1.90;;;0.90;;
19207;SDS011;9737;59.466;18.036;2022-09-16T14:31:29;0.77;;;0.77;;
19207;SDS011;9737;59.466;18.036;2022-09-16T14:33:59;0.80;;;0.80;;
19207;SDS011;9737;59.466;18.036;2022-09-16T14:36:30;1.00;;;0.80;;
19207;SDS011;9737;59.466;18.036;2022-09-16T14:39:03;1.05;;;0.98;;
19207;SDS011;9737;59.466;18.036;2022-09-16T14:41:38;1.17;;;1.00;;
19207;SDS011;9737;59.466;18.036;2022-09-16T14:44:13;1.25;;;1.08;;
19207;SDS011;9737;59.466;18.036;2022-09-16T14:46:46;0.90;;;0.90;;
19207;SDS011;9737;59.466;18.036;2022-09-16T14:49:16;1.35;;;1.20;;
19207;SDS011;9737;59.466;18.036;2022-09-16T14:51:47;2.65;;;1.20;;
19207;SDS011;9737;59.466;18.036;2022-09-16T14:54:19;1.90;;;1.20;;
19207;SDS011;9737;59.466;18.036;2022-09-16T14:56:55;1.52;;;1.10;;
19207;SDS011;9737;59.466;18.036;2022-09-16T14:59:26;1.90;;;1.05;;
19207;SDS011;9737;59.466;18.036;2022-09-16T15:01:58;1.15;;;1.00;;
19207;SDS011;9737;59.466;18.036;2022-09-16T15:04:31;3.10;;;1.55;;
19207;SDS011;9737;59.466;18.036;2022-09-16T15:07:04;1.17;;;1.10;;
19207;SDS011;9737;59.466;18.036;2022-09-16T15:09:40;3.42;;;1.25;;
19207;SDS011;9737;59.466;18.036;2022-09-16T15:12:16;1.35;;;1.25;;
19207;SDS011;9737;59.466;18.036;2022-09-16T15:14:46;3.33;;;1.23;;
19207;SDS011;9737;59.466;18.036;2022-09-16T15:17:15;2.92;;;1.30;;
19207;SDS011;9737;59.466;18.036;2022-09-16T15:19:47;1.35;;;1.25;;
19207;SDS011;9737;59.466;18.036;2022-09-16T15:22:19;2.92;;;1.20;;
19207;SDS011;9737;59.466;18.036;2022-09-16T15:24:50;1.33;;;1.20;;
19207;SDS011;9737;59.466;18.036;2022-09-16T15:27:20;1.30;;;1.20;;
19207;SDS011;9737;59.466;18.036;2022-09-16T15:29:52;1.92;;;1.13;;
19207;SDS011;9737;59.466;18.036;2022-09-16T15:32:25;2.03;;;1.35;;
19207;SDS011;9737;59.466;18.036;2022-09-16T15:37:48;1.67;;;1.30;;
19207;SDS011;9737;59.466;18.036;2022-09-16T15:40:20;1.40;;;1.30;;
19207;SDS011;9737;59.466;18.036;2022-09-16T15:43:00;1.13;;;1.02;;
19207;SDS011;9737;59.466;18.036;2022-09-16T15:45:31;1.30;;;1.20;;